Time;durP1;ratioP1;P1;durP2;ratioP2;P2;SDS_P1;SDS_P2;PMS_P1;PMS_P2;Temp;Humidity;BMP_temperature;BMP_pressure;BME280_temperature;BME280_humidity;BME280_pressure;Samples;Min_cycle;Max_cycle;Signal;HPM_P1;HPM_P2
2022/12/01 00:01:18;;;;;;;11.35;7.15;;;;;;;6.38;100.00;97258.31;5001932;28;20050;-60
2022/12/01 00:03:45;;;;;;;16.40;7.60;;;;;;;6.54;100.00;97319.84;5004287;28;20482;-54
2022/12/01 00:06:15;;;;;;;23.25;9.02;;;;;;;6.51;100.00;97339.78;5001890;28;20121;-58
2022/12/01 00:11:28;;;;;;;20.58;9.55;;;;;;;6.54;100.00;97343.78;4987375;28;20481;-57
2022/12/01 00:13:54;;;;;;;24.20;9.88;;;;;;;6.25;100.00;97347.41;4987758;28;20144;-58
2022/12/01 00:16:21;;;;;;;17.52;8.88;;;;;;;6.09;100.00;97296.91;4987451;28;20058;-56
2022/12/01 00:18:49;;;;;;;14.68;8.02;;;;;;;6.13;100.00;97295.09;4987615;28;20042;-54
2022/12/01 00:21:18;;;;;;;15.50;8.80;;;;;;;6.55;100.00;97340.69;4985752;28;20058;-55
2022/12/01 00:23:47;;;;;;;14.93;8.20;;;;;;;6.65;100.00;97340.31;4986131;28;20105;-54
2022/12/01 00:26:15;;;;;;;15.73;8.35;;;;;;;6.39;100.00;97294.88;4986921;28;20583;-54
2022/12/01 00:28:42;;;;;;;16.00;7.72;;;;;;;6.53;100.00;97359.50;4987318;28;20050;-57
2022/12/01 00:31:10;;;;;;;11.57;7.15;;;;;;;6.66;100.00;97339.16;4987322;28;20050;-57
2022/12/01 00:33:37;;;;;;;14.63;7.57;;;;;;;6.06;100.00;97300.31;4987183;28;20287;-56
2022/12/01 00:36:05;;;;;;;13.48;7.60;;;;;;;6.13;100.00;97342.63;4986979;28;20601;-54
2022/12/01 00:38:32;;;;;;;15.93;8.43;;;;;;;6.09;100.00;97340.91;4985697;28;20117;-54
2022/12/01 00:40:59;;;;;;;18.40;8.95;;;;;;;6.27;100.00;97344.34;4986990;28;20046;-55
2022/12/01 00:43:25;;;;;;;16.45;7.70;;;;;;;6.17;100.00;97340.03;4987322;28;20120;-54
2022/12/01 00:45:52;;;;;;;13.98;6.75;;;;;;;5.75;100.00;97310.88;4998786;28;20166;-55
2022/12/01 00:48:18;;;;;;;14.00;6.72;;;;;;;5.83;100.00;97334.78;5006636;28;20056;-53
2022/12/01 00:50:46;;;;;;;17.85;8.07;;;;;;;5.36;100.00;97289.28;5006389;28;20133;-53
2022/12/01 00:53:12;;;;;;;14.48;6.57;;;;;;;5.08;100.00;97230.44;5006105;28;20120;-56
2022/12/01 00:55:39;;;;;;;16.35;6.93;;;;;;;5.31;100.00;97245.50;5006356;28;20057;-56
2022/12/01 00:58:06;;;;;;;18.17;8.10;;;;;;;5.39;100.00;97241.91;5006338;28;20137;-54
2022/12/01 01:00:33;;;;;;;23.17;13.73;;;;;;;6.03;100.00;97312.00;5004858;28;20107;-56
2022/12/01 01:03:00;;;;;;;14.88;7.15;;;;;;;6.18;100.00;97314.13;5006034;28;20580;-54
2022/12/01 01:05:26;;;;;;;14.18;6.35;;;;;;;6.26;100.00;97310.50;5005942;28;20484;-57
2022/12/01 01:07:53;;;;;;;12.15;7.05;;;;;;;6.35;100.00;97297.50;5005778;28;20461;-54
2022/12/01 01:10:21;;;;;;;11.23;5.97;;;;;;;6.45;100.00;97302.56;5004324;28;20108;-54
2022/12/01 01:12:48;;;;;;;11.70;4.97;;;;;;;6.56;100.00;97297.50;5006096;28;20116;-56
2022/12/01 01:15:14;;;;;;;15.13;8.05;;;;;;;6.59;100.00;97303.09;5005579;28;20054;-57
2022/12/01 01:17:41;;;;;;;11.27;6.82;;;;;;;6.65;100.00;97296.25;4992435;28;20104;-54
2022/12/01 01:20:08;;;;;;;12.13;6.18;;;;;;;6.70;100.00;97296.03;4984667;28;20133;-57
2022/12/01 01:22:35;;;;;;;8.55;5.05;;;;;;;6.76;100.00;97291.94;4986256;28;20160;-53
2022/12/01 01:25:02;;;;;;;8.32;4.82;;;;;;;6.67;100.00;97285.69;4986155;28;20125;-57
2022/12/01 01:27:28;;;;;;;13.77;5.68;;;;;;;6.16;100.00;97189.94;4986271;28;20054;-58
2022/12/01 01:29:55;;;;;;;10.80;5.47;;;;;;;6.87;100.00;97301.38;4986276;28;20579;-54
2022/12/01 01:32:21;;;;;;;7.85;4.30;;;;;;;6.85;100.00;97300.91;4985723;28;20484;-57
2022/12/01 01:34:48;;;;;;;8.30;4.60;;;;;;;6.87;100.00;97287.59;4984590;28;20493;-54
2022/12/01 01:37:15;;;;;;;11.98;6.70;;;;;;;6.76;100.00;97269.91;4985671;28;20497;-54
2022/12/01 01:39:41;;;;;;;10.82;6.85;;;;;;;6.82;100.00;97290.56;4985376;28;20116;-58
2022/12/01 01:42:12;;;;;;;9.68;5.10;;;;;;;6.88;100.00;97294.72;4986095;28;20121;-56
2022/12/01 01:44:58;;;;;;;9.85;4.55;;;;;;;6.87;100.00;97286.78;4986280;28;20137;-57
2022/12/01 01:47:33;;;;;;;8.35;3.88;;;;;;;6.90;100.00;97292.44;4985657;28;20116;-57
2022/12/01 01:50:08;;;;;;;8.75;3.75;;;;;;;6.95;100.00;97306.00;4985979;28;20133;-53
2022/12/01 01:52:38;;;;;;;8.45;4.15;;;;;;;6.62;100.00;97252.91;4985941;28;20148;-56
2022/12/01 01:55:06;;;;;;;7.50;4.13;;;;;;;6.83;100.00;97285.88;4985638;28;20137;-54
2022/12/01 01:57:33;;;;;;;9.63;4.65;;;;;;;6.65;100.00;97279.75;4984295;28;20600;-54
2022/12/01 02:00:10;;;;;;;21.65;5.47;;;;;;;6.34;100.00;97273.88;4985455;28;20046;-57
2022/12/01 02:02:39;;;;;;;14.20;5.60;;;;;;;5.93;100.00;97191.41;4985796;28;20149;-54
2022/12/01 02:05:09;;;;;;;12.30;5.75;;;;;;;6.45;100.00;97264.06;4985854;28;20137;-58
2022/12/01 02:07:39;;;;;;;12.73;5.93;;;;;;;6.46;100.00;97260.19;4985409;28;20054;-57
2022/12/01 02:10:07;;;;;;;13.35;7.60;;;;;;;6.69;100.00;97283.41;5002588;28;20516;-57
2022/12/01 02:12:46;;;;;;;13.15;7.28;;;;;;;6.75;100.00;97278.50;5004949;28;20149;-54
2022/12/01 02:15:36;;;;;;;14.43;7.68;;;;;;;6.72;100.00;97274.47;5004947;28;20414;-54
2022/12/01 02:18:11;;;;;;;14.02;7.43;;;;;;;6.68;100.00;97265.31;4991911;28;20163;-56
2022/12/01 02:20:56;;;;;;;10.80;5.88;;;;;;;6.80;100.00;97270.84;4984687;28;20325;-57
2022/12/01 02:23:54;;;;;;;13.93;7.95;;;;;;;6.85;100.00;97267.06;4984724;28;20093;-53
2022/12/01 02:26:45;;;;;;;13.55;7.70;;;;;;;6.91;100.00;97271.19;4984734;28;20525;-54
2022/12/01 02:29:36;;;;;;;19.10;13.25;;;;;;;6.92;100.00;97265.38;4994529;28;20614;-57
2022/12/01 02:32:15;;;;;;;16.10;10.98;;;;;;;6.88;100.00;97261.69;4989656;28;20673;-55
2022/12/01 02:34:47;;;;;;;14.75;8.93;;;;;;;6.71;100.00;97261.88;4985444;28;20107;-56
2022/12/01 02:37:48;;;;;;;16.25;9.25;;;;;;;6.81;100.00;97261.41;4985341;28;20054;-54
2022/12/01 02:40:21;;;;;;;17.15;10.45;;;;;;;6.84;100.00;97265.44;4985758;28;20452;-54
2022/12/01 02:43:19;;;;;;;11.07;7.03;;;;;;;6.85;100.00;97265.13;5003462;28;20765;-56
2022/12/01 02:45:51;;;;;;;12.23;6.80;;;;;;;6.82;100.00;97267.72;5004431;28;20053;-56
2022/12/01 02:48:29;;;;;;;11.68;7.10;;;;;;;6.25;100.00;97160.38;5003932;28;20068;-56
2022/12/01 02:51:03;;;;;;;9.80;6.70;;;;;;;6.88;100.00;97256.16;5004184;28;20629;-56
2022/12/01 02:53:30;;;;;;;8.20;5.38;;;;;;;6.91;100.00;97252.72;5004429;28;20567;-54
2022/12/01 02:55:58;;;;;;;7.90;5.72;;;;;;;6.95;100.00;97242.66;5004149;28;20085;-54
2022/12/01 02:58:25;;;;;;;6.95;4.88;;;;;;;6.92;100.00;97235.09;5004177;28;20129;-56
2022/12/01 03:01:29;;;;;;;9.68;5.63;;;;;;;7.03;100.00;97247.25;5004014;28;20050;-53
2022/12/01 03:04:01;;;;;;;;;;;;;;;6.95;100.00;97239.91;5004652;28;20057;-58
2022/12/01 03:06:53;;;;;;;9.48;5.53;;;;;;;6.92;100.00;97240.59;4964841;28;20017;-57
2022/12/01 03:10:14;;;;;;;8.27;4.78;;;;;;;6.94;100.00;97238.28;4965258;28;20434;-57
2022/12/01 03:13:25;;;;;;;7.47;4.80;;;;;;;6.96;100.00;97241.50;4981150;28;20499;-54
2022/12/01 03:16:20;;;;;;;10.98;5.47;;;;;;;6.95;100.00;97234.41;4965821;28;20144;-54
2022/12/01 03:18:54;;;;;;;10.45;6.85;;;;;;;6.96;100.00;97230.47;4981521;28;20116;-54
2022/12/01 03:21:42;;;;;;;9.27;4.82;;;;;;;7.00;100.00;97239.66;4984576;28;20141;-54
2022/12/01 03:24:14;;;;;;;7.32;5.07;;;;;;;6.92;100.00;97235.09;4985121;28;20066;-56
2022/12/01 03:26:44;;;;;;;5.15;3.28;;;;;;;6.82;100.00;97224.50;4984250;28;20396;-53
2022/12/01 03:29:25;;;;;;;6.57;4.32;;;;;;;6.89;100.00;97232.97;4985032;28;20492;-54
2022/12/01 03:31:59;;;;;;;5.22;2.90;;;;;;;6.93;100.00;97231.16;4993556;28;20050;-56
2022/12/01 03:34:39;;;;;;;7.45;3.83;;;;;;;6.94;100.00;97231.97;5004618;28;20119;-57
2022/12/01 03:37:13;;;;;;;3.72;3.10;;;;;;;6.92;100.00;97234.28;5003932;28;20583;-57
2022/12/01 03:39:42;;;;;;;7.22;3.05;;;;;;;6.83;100.00;97220.59;5005416;28;20169;-56
2022/12/01 03:42:28;;;;;;;5.13;3.03;;;;;;;6.80;100.00;97232.28;5007734;28;20111;-57
2022/12/01 03:44:59;;;;;;;6.68;3.25;;;;;;;6.90;100.00;97239.31;5022826;28;20104;-57
2022/12/01 03:47:31;;;;;;;4.28;2.70;;;;;;;6.80;100.00;97235.03;5007548;28;20095;-54
2022/12/01 03:49:59;;;;;;;4.78;2.40;;;;;;;6.77;100.00;97238.47;5007361;28;20495;-55
2022/12/01 03:52:53;;;;;;;18.52;9.93;;;;;;;6.83;100.00;97223.34;5007568;28;20045;-54
2022/12/01 03:55:27;;;;;;;5.05;3.22;;;;;;;6.78;100.00;97222.78;5007362;28;20173;-56
2022/12/01 03:58:06;;;;;;;6.15;3.00;;;;;;;6.83;100.00;97223.34;5007480;28;20132;-53
2022/12/01 04:00:33;;;;;;;6.28;3.10;;;;;;;6.31;100.00;97142.50;5006175;28;20555;-53
2022/12/01 04:03:02;;;;;;;6.47;3.67;;;;;;;6.74;100.00;97238.34;5007391;28;20050;-55
2022/12/01 04:05:32;;;;;;;7.32;4.38;;;;;;;6.40;100.00;97179.00;5005043;28;20517;-57
2022/12/01 04:07:59;;;;;;;14.60;6.18;;;;;;;6.68;100.00;97229.53;5007332;28;20599;-56
2022/12/01 04:10:26;;;;;;;5.93;3.58;;;;;;;6.79;100.00;97232.63;5007240;28;20136;-54
2022/12/01 04:12:57;;;;;;;4.47;3.45;;;;;;;6.27;100.00;97169.09;5006498;28;20085;-57
2022/12/01 04:15:26;;;;;;;4.85;2.92;;;;;;;6.15;100.00;97155.31;5001207;28;20046;-57
2022/12/01 04:17:52;;;;;;;3.67;2.88;;;;;;;6.43;100.00;97183.84;4986170;28;20092;-56
2022/12/01 04:20:20;;;;;;;8.32;3.80;;;;;;;6.76;100.00;97234.13;4987280;28;20137;-56
2022/12/01 04:22:46;;;;;;;6.75;3.88;;;;;;;6.77;100.00;97243.16;4987194;28;20054;-56
2022/12/01 04:25:13;;;;;;;3.50;3.20;;;;;;;6.73;100.00;97253.28;4987284;28;20525;-56
2022/12/01 04:27:40;;;;;;;4.82;3.42;;;;;;;6.68;100.00;97251.53;4986970;28;20145;-56
2022/12/01 04:30:07;;;;;;;1.65;1.48;;;;;;;6.63;100.00;97246.25;4987475;28;20078;-56
2022/12/01 04:32:38;;;;;;;3.35;2.00;;;;;;;6.25;100.00;97214.56;4986189;28;20054;-54
2022/12/01 04:35:08;;;;;;;4.32;2.45;;;;;;;6.47;100.00;97256.28;4987339;28;20046;-57
2022/12/01 04:37:35;;;;;;;5.20;4.65;;;;;;;6.26;100.00;97236.25;4986673;28;20054;-54
2022/12/01 04:40:02;;;;;;;21.30;11.85;;;;;;;6.21;100.00;97241.97;4985417;28;20116;-54
2022/12/01 04:42:29;;;;;;;30.02;14.82;;;;;;;6.36;100.00;97260.59;4986753;28;20050;-57
2022/12/01 04:44:55;;;;;;;9.23;4.28;;;;;;;6.26;100.00;97255.50;4999815;28;20235;-57
2022/12/01 04:47:22;;;;;;;19.42;11.32;;;;;;;6.16;100.00;97272.44;5004989;28;20205;-56
2022/12/01 04:49:49;;;;;;;8.90;5.35;;;;;;;6.17;100.00;97263.03;5006998;28;20481;-57
2022/12/01 04:52:16;;;;;;;4.70;3.13;;;;;;;6.08;100.00;97273.31;4990447;28;20058;-57
2022/12/01 04:54:42;;;;;;;2.80;1.80;;;;;;;6.13;100.00;97260.13;4985065;28;20128;-56
2022/12/01 04:57:09;;;;;;;3.78;1.85;;;;;;;6.13;100.00;97273.88;4984839;28;20053;-56
2022/12/01 04:59:35;;;;;;;2.72;1.98;;;;;;;6.14;100.00;97263.69;4990513;28;20136;-55
2022/12/01 05:02:02;;;;;;;4.07;2.03;;;;;;;6.22;100.00;97264.75;5004948;28;20061;-56
2022/12/01 05:04:31;;;;;;;6.20;4.00;;;;;;;6.27;100.00;97259.88;5006585;28;20652;-57
2022/12/01 05:06:58;;;;;;;5.82;3.40;;;;;;;6.13;100.00;97251.09;5006089;28;20072;-56
2022/12/01 05:09:24;;;;;;;8.95;5.40;;;;;;;6.26;100.00;97266.50;5006112;28;20145;-55
2022/12/01 05:11:51;;;;;;;5.75;3.05;;;;;;;6.25;100.00;97264.91;5005766;28;20100;-57
2022/12/01 05:14:17;;;;;;;7.05;3.95;;;;;;;6.18;100.00;97269.34;5004532;28;20511;-56
2022/12/01 05:16:44;;;;;;;8.52;5.38;;;;;;;6.03;100.00;97281.75;5005308;28;20600;-56
2022/12/01 05:21:56;;;;;;;5.68;4.13;;;;;;;5.95;100.00;97283.44;4986093;28;20062;-55
2022/12/01 05:24:22;;;;;;;5.28;3.90;;;;;;;5.79;100.00;97273.31;4986345;28;20585;-56
2022/12/01 05:26:49;;;;;;;12.60;5.30;;;;;;;5.79;100.00;97295.31;4986159;28;20499;-54
2022/12/01 05:29:16;;;;;;;13.05;5.50;;;;;;;5.63;100.00;97280.53;4986229;28;20116;-53
2022/12/01 05:31:44;;;;;;;19.25;8.40;;;;;;;5.74;100.00;97287.25;4985912;28;20053;-54
2022/12/01 05:34:11;;;;;;;23.63;10.55;;;;;;;5.80;100.00;97285.94;4986432;28;20058;-56
2022/12/01 05:36:37;;;;;;;23.75;9.77;;;;;;;5.74;100.00;97281.75;4985573;28;20054;-57
2022/12/01 05:39:04;;;;;;;24.30;9.50;;;;;;;5.76;100.00;97280.28;4986517;28;20502;-54
2022/12/01 05:41:31;;;;;;;22.33;9.27;;;;;;;5.60;100.00;97253.72;4985769;28;20592;-56
2022/12/01 05:43:57;;;;;;;24.17;10.50;;;;;;;5.26;100.00;97202.56;4984534;28;20216;-58
2022/12/01 05:46:24;;;;;;;32.40;15.57;;;;;;;5.83;100.00;97286.09;4984288;28;20070;-56
2022/12/01 05:48:51;;;;;;;38.35;21.00;;;;;;;5.93;100.00;97284.88;4986785;28;20450;-57
2022/12/01 05:51:17;;;;;;;24.88;12.07;;;;;;;5.67;100.00;97243.03;4985750;28;20061;-57
2022/12/01 05:53:44;;;;;;;18.95;10.50;;;;;;;5.68;100.00;97239.94;4985838;28;20599;-57
2022/12/01 05:56:11;;;;;;;11.65;7.18;;;;;;;5.95;100.00;97288.13;4985818;28;20497;-59
2022/12/01 05:58:38;;;;;;;10.88;6.72;;;;;;;6.00;100.00;97301.66;4985203;28;20575;-57
2022/12/01 06:01:05;;;;;;;17.70;9.18;;;;;;;6.07;100.00;97296.41;4985018;28;20119;-58
2022/12/01 06:03:31;;;;;;;16.75;12.35;;;;;;;6.06;100.00;97300.31;4985044;28;20141;-58
2022/12/01 06:05:58;;;;;;;19.58;14.93;;;;;;;6.12;100.00;97298.97;4985426;28;20489;-58
2022/12/01 06:08:25;;;;;;;22.58;14.73;;;;;;;6.17;100.00;97301.53;4983800;28;20054;-54
2022/12/01 06:10:51;;;;;;;18.92;11.52;;;;;;;6.22;100.00;97303.28;4993245;28;20248;-59
2022/12/01 06:13:18;;;;;;;21.40;13.77;;;;;;;6.21;100.00;97305.25;5004790;28;20112;-59
2022/12/01 06:15:44;;;;;;;14.27;8.48;;;;;;;6.27;100.00;97300.31;4990452;28;20050;-53
2022/12/01 06:18:11;;;;;;;10.48;6.60;;;;;;;6.28;100.00;97308.22;4985403;28;20116;-60
2022/12/01 06:20:38;;;;;;;13.38;7.80;;;;;;;6.22;100.00;97298.59;4984910;28;20141;-58
2022/12/01 06:23:04;;;;;;;15.80;9.35;;;;;;;5.98;100.00;97268.19;4984709;28;20066;-54
2022/12/01 06:25:31;;;;;;;13.80;9.23;;;;;;;6.31;100.00;97318.56;4985114;28;20051;-54
2022/12/01 06:27:58;;;;;;;12.32;9.70;;;;;;;6.36;100.00;97317.56;4985017;28;20348;-59
2022/12/01 06:30:25;;;;;;;12.07;10.05;;;;;;;6.40;100.00;97315.75;4983655;28;20161;-59
2022/12/01 06:32:51;;;;;;;12.45;9.07;;;;;;;6.01;100.00;97262.84;4994405;28;20058;-59
2022/12/01 06:35:18;;;;;;;15.55;11.63;;;;;;;6.46;100.00;97314.41;5004000;28;20141;-55
2022/12/01 06:37:45;;;;;;;14.68;10.52;;;;;;;6.38;100.00;97299.59;5004620;28;20338;-54
2022/12/01 06:40:12;;;;;;;11.38;7.93;;;;;;;6.37;100.00;97322.72;5004851;28;20140;-59
2022/12/01 06:42:38;;;;;;;9.20;7.13;;;;;;;5.51;100.00;97185.13;5004044;28;20470;-59
2022/12/01 06:45:06;;;;;;;11.98;7.65;;;;;;;6.24;100.00;97285.31;4964112;28;20470;-59
2022/12/01 06:47:32;;;;;;;10.18;6.43;;;;;;;6.41;100.00;97318.16;4965302;28;20138;-59
2022/12/01 06:49:59;;;;;;;9.48;6.55;;;;;;;6.43;100.00;97315.06;4963863;28;20054;-56
2022/12/01 06:52:25;;;;;;;9.45;6.05;;;;;;;6.46;100.00;97314.41;4982014;28;20136;-54
2022/12/01 06:54:52;;;;;;;10.30;6.35;;;;;;;6.37;100.00;97300.72;4995623;28;20190;-59
2022/12/01 06:57:19;;;;;;;10.38;4.80;;;;;;;6.52;100.00;97319.38;4984538;28;20061;-59
2022/12/01 06:59:46;;;;;;;9.35;5.70;;;;;;;6.29;100.00;97271.34;4983375;28;20046;-58
2022/12/01 07:02:13;;;;;;;6.50;4.40;;;;;;;6.60;100.00;97307.47;4986310;28;20128;-59
2022/12/01 07:04:40;;;;;;;5.05;3.08;;;;;;;6.32;100.00;97284.44;4984720;28;20054;-59
2022/12/01 07:07:07;;;;;;;6.07;3.88;;;;;;;6.24;100.00;97257.81;4984078;28;20050;-61
2022/12/01 07:09:34;;;;;;;8.02;4.05;;;;;;;6.63;100.00;97315.06;4984761;28;20148;-54
2022/12/01 07:12:00;;;;;;;16.98;8.35;;;;;;;6.68;100.00;97311.28;4984285;28;20054;-58
2022/12/01 07:14:27;;;;;;;10.30;5.80;;;;;;;6.67;100.00;97304.97;4979674;28;20062;-59
2022/12/01 07:16:54;;;;;;;7.40;2.67;;;;;;;6.30;100.00;97310.66;4988595;28;20567;-54
2022/12/01 07:19:21;;;;;;;7.32;3.33;;;;;;;5.63;100.00;97242.06;4986687;28;20105;-54
2022/12/01 07:21:47;;;;;;;7.50;3.20;;;;;;;6.26;100.00;97310.50;4987954;28;20125;-56
2022/12/01 07:24:14;;;;;;;19.35;14.68;;;;;;;6.40;100.00;97308.31;4988520;28;20145;-59
2022/12/01 07:26:42;;;;;;;11.95;7.80;;;;;;;6.22;100.00;97259.25;4988071;28;20050;-53
2022/12/01 07:29:09;;;;;;;11.68;8.05;;;;;;;5.90;100.00;97186.59;4988527;28;20104;-57
2022/12/01 07:31:37;;;;;;;32.55;15.90;;;;;;;6.64;100.00;97305.66;4988330;28;20086;-57
2022/12/01 07:34:04;;;;;;;14.77;7.88;;;;;;;6.69;100.00;97307.38;4988227;28;20527;-56
2022/12/01 07:36:31;;;;;;;17.20;9.98;;;;;;;6.06;100.00;97191.16;4984362;28;20528;-61
2022/12/01 07:39:02;;;;;;;17.63;11.25;;;;;;;6.24;100.00;97205.53;4987196;28;20097;-58
2022/12/01 07:41:29;;;;;;;28.80;18.48;;;;;;;6.47;100.00;97283.78;4985962;28;20548;-58
2022/12/01 07:43:56;;;;;;;9.55;6.70;;;;;;;6.49;100.00;97259.50;4976965;28;20160;-57
2022/12/01 07:46:25;;;;;;;13.70;9.02;;;;;;;6.76;100.00;97308.47;4986158;28;20050;-57
2022/12/01 07:48:53;;;;;;;22.90;17.08;;;;;;;6.88;100.00;97322.25;4987145;28;20125;-60
2022/12/01 07:51:21;;;;;;;11.05;8.07;;;;;;;6.70;100.00;97309.78;4978567;28;20121;-70
2022/12/01 07:53:49;;;;;;;21.50;14.52;;;;;;;6.75;100.00;97309.56;4984232;28;20074;-61
2022/12/01 07:56:17;;;;;;;18.92;12.65;;;;;;;6.03;100.00;97188.25;4986711;28;20484;-65
2022/12/01 07:58:44;;;;;;;25.95;15.23;;;;;;;6.34;100.00;97251.88;4986711;28;20173;-62
2022/12/01 08:01:17;;;;;;;39.10;22.35;;;;;;;6.82;100.00;97307.09;4986096;28;20104;-57
2022/12/01 08:03:44;;;;;;;34.45;21.65;;;;;;;6.60;100.00;97315.72;4986814;28;20646;-57
2022/12/01 08:06:11;;;;;;;18.73;13.48;;;;;;;6.47;100.00;97311.31;4987171;28;20105;-63
2022/12/01 08:08:39;;;;;;;32.40;22.70;;;;;;;6.52;100.00;97319.38;4986746;28;20058;-58
2022/12/01 08:11:10;;;;;;;10.73;6.43;;;;;;;6.37;100.00;97278.69;4986288;28;20046;-60
2022/12/01 08:13:37;;;;;;;10.10;7.03;;;;;;;6.41;100.00;97312.66;4968157;28;20082;-59
2022/12/01 08:16:06;;;;;;;14.10;10.32;;;;;;;6.48;100.00;97309.38;4969378;28;20050;-70
2022/12/01 08:18:34;;;;;;;11.63;8.25;;;;;;;6.45;100.00;97302.56;4983125;28;20054;-65
2022/12/01 08:21:01;;;;;;;43.33;29.70;;;;;;;6.34;100.00;97323.38;4985410;28;20473;-57
2022/12/01 08:23:27;;;;;;;25.70;19.02;;;;;;;6.59;100.00;97308.59;4986456;28;20157;-63
2022/12/01 08:25:56;;;;;;;17.25;10.15;;;;;;;6.68;100.00;97312.09;4985218;28;20058;-56
2022/12/01 08:28:23;;;;;;;12.88;9.90;;;;;;;6.74;100.00;97304.41;4986322;28;20051;-59
2022/12/01 08:30:49;;;;;;;7.85;5.50;;;;;;;6.11;100.00;97214.88;4987544;28;20046;-60
2022/12/01 08:33:16;;;;;;;21.52;17.73;;;;;;;6.62;100.00;97307.94;4987029;28;20062;-61
2022/12/01 08:35:43;;;;;;;10.90;9.38;;;;;;;6.67;100.00;97296.72;4986197;28;20062;-56
2022/12/01 08:38:09;;;;;;;11.93;8.80;;;;;;;6.93;100.00;97296.44;4985903;28;20054;-70
2022/12/01 08:40:36;;;;;;;11.63;7.53;;;;;;;6.75;100.00;97249.03;4986839;28;20116;-61
2022/12/01 08:43:03;;;;;;;16.42;10.95;;;;;;;7.14;100.00;97300.75;4986082;28;20058;-61
2022/12/01 08:45:30;;;;;;;11.20;7.47;;;;;;;7.28;100.00;97292.97;4984659;28;20077;-56
2022/12/01 08:47:58;;;;;;;62.40;34.83;;;;;;;7.17;100.00;97291.81;4995021;28;20117;-58
2022/12/01 08:50:26;;;;;;;36.25;22.45;;;;;;;6.60;100.00;97224.91;4996041;28;20493;-61
2022/12/01 08:52:53;;;;;;;67.13;40.13;;;;;;;7.13;100.00;97287.28;4965438;28;20086;-62
2022/12/01 08:55:20;;;;;;;32.47;22.08;;;;;;;6.98;100.00;97269.50;4965098;28;20097;-59
2022/12/01 08:57:47;;;;;;;6.55;5.18;;;;;;;7.11;100.00;97282.13;4979508;28;20089;-63
2022/12/01 09:00:15;;;;;;;7.43;6.07;;;;;;;6.71;100.00;97190.31;4977100;28;20121;-63
2022/12/01 09:02:41;;;;;;;20.90;12.48;;;;;;;7.32;100.00;97282.84;4966663;28;20051;-59
2022/12/01 09:05:08;;;;;;;12.98;8.65;;;;;;;7.46;100.00;97279.78;4984704;28;20136;-62
2022/12/01 09:07:35;;;;;;;14.63;9.35;;;;;;;7.16;100.00;97221.31;4985399;28;20058;-61
2022/12/01 09:10:03;;;;;;;17.60;12.02;;;;;;;7.02;100.00;97201.56;4985770;28;20054;-58
2022/12/01 09:12:30;;;;;;;11.13;7.43;;;;;;;7.61;100.00;97268.84;4985802;28;20054;-57
2022/12/01 09:14:56;;;;;;;14.80;9.10;;;;;;;7.69;100.00;97259.66;4986498;28;20054;-58
2022/12/01 09:17:23;;;;;;;11.00;6.07;;;;;;;7.58;100.00;97261.28;4985544;28;20104;-59
2022/12/01 09:19:49;;;;;;;9.18;6.50;;;;;;;6.90;100.00;97160.28;4984708;28;20042;-57
2022/12/01 09:22:17;;;;;;;17.10;14.63;;;;;;;7.62;100.00;97251.16;4985607;28;20146;-62
2022/12/01 09:24:43;;;;;;;9.63;4.85;;;;;;;6.73;100.00;97121.97;4985641;28;20090;-59
2022/12/01 09:27:10;;;;;;;12.30;9.23;;;;;;;7.18;100.00;97208.00;4985192;28;20092;-56
2022/12/01 09:29:37;;;;;;;25.00;19.40;;;;;;;7.50;100.00;97253.13;4983506;28;20132;-62
2022/12/01 09:32:03;;;;;;;9.73;6.80;;;;;;;7.57;100.00;97256.91;4983642;28;20050;-72
2022/12/01 09:34:30;;;;;;;6.47;4.32;;;;;;;7.23;100.00;97202.28;4985642;28;20496;-64
2022/12/01 09:36:57;;;;;;;163.10;98.35;;;;;;;7.37;100.00;97213.75;4974562;28;20368;-65
2022/12/01 09:39:24;;;;;;;10.20;7.43;;;;;;;7.49;100.00;97221.22;4983388;28;20128;-62
2022/12/01 09:42:12;;;;;;;12.55;5.65;;;;;;;7.65;100.00;97242.19;4985280;28;20480;-62
2022/12/01 09:44:52;;;;;;;6.28;4.38;;;;;;;7.65;100.00;97236.69;4984291;28;20489;-62
2022/12/01 09:47:29;;;;;;;7.55;4.18;;;;;;;7.70;100.00;97244.72;4983933;28;20062;-64
2022/12/01 09:50:05;;;;;;;8.13;6.00;;;;;;;7.74;100.00;97220.81;4976241;28;20739;-55
2022/12/01 09:52:46;;;;;;;6.43;5.70;;;;;;;7.71;100.00;97229.78;4983042;28;20415;-58
2022/12/01 09:55:15;;;;;;;8.90;4.97;;;;;;;7.65;100.00;97228.41;4968479;28;20130;-66
2022/12/01 09:57:46;;;;;;;11.27;9.13;;;;;;;7.35;100.00;97182.97;4984565;28;20104;-62
2022/12/01 10:00:22;;;;;;;13.43;9.75;;;;;;;5.57;100.00;96892.56;4983309;28;20062;-65
2022/12/01 10:03:08;;;;;;;19.50;13.07;;;;;;;7.53;100.00;97222.91;4984919;28;20070;-61
2022/12/01 10:05:48;;;;;;;8.35;5.80;;;;;;;7.33;100.00;97204.53;4983383;28;20054;-58
2022/12/01 10:08:38;;;;;;;11.70;8.13;;;;;;;7.46;100.00;97219.94;4983383;28;20058;-60
2022/12/01 10:11:14;;;;;;;9.00;7.00;;;;;;;7.39;100.00;97214.22;4984028;28;20058;-58
2022/12/01 10:13:41;;;;;;;11.60;8.45;;;;;;;7.28;100.00;97202.03;4983914;28;20481;-64
2022/12/01 10:16:14;;;;;;;9.32;7.82;;;;;;;7.14;100.00;97192.50;4983830;28;20050;-58
2022/12/01 10:19:12;;;;;;;10.20;8.43;;;;;;;7.39;100.00;97216.97;4983270;28;20046;-63
2022/12/01 10:21:51;;;;;;;18.17;11.88;;;;;;;6.00;100.00;97015.75;4984297;28;20058;-58
2022/12/01 10:24:27;;;;;;;16.42;8.57;;;;;;;7.09;100.00;97206.50;4984119;28;20053;-58
2022/12/01 10:27:06;;;;;;;20.85;10.57;;;;;;;7.14;100.00;97212.63;4984375;28;20065;-61
2022/12/01 10:30:14;;;;;;;18.00;9.48;;;;;;;7.27;100.00;97216.94;4983172;28;20512;-58
2022/12/01 10:32:55;;;;;;;21.88;8.70;;;;;;;7.11;100.00;97194.00;4964373;28;20063;-57
2022/12/01 10:35:34;;;;;;;14.63;7.13;;;;;;;7.09;100.00;97201.00;4977613;28;20992;-60
2022/12/01 10:38:06;;;;;;;23.00;11.38;;;;;;;7.12;100.00;97217.66;4983493;28;20080;-58
2022/12/01 10:40:34;;;;;;;24.55;14.07;;;;;;;7.17;100.00;97209.16;4984146;28;20269;-59
2022/12/01 10:43:01;;;;;;;22.25;12.15;;;;;;;7.18;100.00;97210.75;4992008;28;20054;-60
2022/12/01 10:45:38;;;;;;;10.48;5.88;;;;;;;7.12;100.00;97212.13;4983413;28;20057;-57
2022/12/01 10:48:20;;;;;;;26.45;14.18;;;;;;;6.53;100.00;97103.56;4983828;28;20060;-55
2022/12/01 10:50:55;;;;;;;12.57;7.07;;;;;;;7.05;100.00;97172.56;4983908;28;20237;-57
2022/12/01 10:53:34;;;;;;;10.85;6.97;;;;;;;7.23;100.00;97201.47;4982823;28;20532;-56
2022/12/01 10:56:08;;;;;;;6.55;4.28;;;;;;;7.12;100.00;97198.38;4983491;28;20169;-61
2022/12/01 10:58:52;;;;;;;5.85;3.55;;;;;;;6.68;100.00;97155.22;4982690;28;20057;-57
2022/12/01 11:01:25;;;;;;;7.18;4.80;;;;;;;7.05;100.00;97194.59;4983614;28;20141;-62
2022/12/01 11:04:05;;;;;;;11.50;8.88;;;;;;;6.90;100.00;97165.78;4983904;28;20572;-56
2022/12/01 11:06:33;;;;;;;9.82;7.13;;;;;;;7.00;100.00;97198.34;4984234;28;20066;-61
2022/12/01 11:09:05;;;;;;;9.43;7.20;;;;;;;7.04;100.00;97199.28;4984270;28;20042;-61
2022/12/01 11:11:35;;;;;;;9.60;7.20;;;;;;;7.02;100.00;97196.06;4984073;28;20101;-56
2022/12/01 11:14:16;;;;;;;26.27;15.27;;;;;;;6.40;100.00;97096.47;4984099;28;20481;-62
2022/12/01 11:16:45;;;;;;;14.02;10.00;;;;;;;6.99;100.00;97196.75;4979466;28;20132;-58
2022/12/01 11:19:18;;;;;;;15.77;8.90;;;;;;;7.08;100.00;97194.69;4975857;28;20461;-59
2022/12/01 11:21:57;;;;;;;17.55;10.65;;;;;;;7.06;100.00;97201.69;4981774;28;20362;-62
2022/12/01 11:24:44;;;;;;;26.17;14.30;;;;;;;7.16;100.00;97185.50;4983929;28;20505;-64
2022/12/01 11:27:17;;;;;;;34.25;16.50;;;;;;;6.90;100.00;97149.25;4983611;28;20141;-64
2022/12/01 11:29:54;;;;;;;18.17;10.82;;;;;;;7.16;100.00;97185.50;4966074;28;20056;-61
2022/12/01 11:32:37;;;;;;;32.05;19.67;;;;;;;7.04;100.00;97171.75;4983890;28;20057;-63
2022/12/01 11:35:16;;;;;;;13.73;9.55;;;;;;;7.27;100.00;97189.41;4983523;28;20100;-60
2022/12/01 11:37:46;;;;;;;60.28;22.95;;;;;;;7.29;100.00;97184.34;4980867;28;20058;-61
2022/12/01 11:40:53;;;;;;;19.35;9.30;;;;;;;7.27;100.00;97186.66;4973057;28;20085;-61
2022/12/01 11:43:30;;;;;;;40.22;17.13;;;;;;;7.17;100.00;97187.13;4983773;28;20137;-55
2022/12/01 11:46:03;;;;;;;33.30;13.88;;;;;;;7.22;100.00;97200.66;4962699;28;20062;-60
2022/12/01 11:48:33;;;;;;;12.10;6.23;;;;;;;7.32;100.00;97182.84;4964512;28;20055;-63
2022/12/01 11:51:18;;;;;;;14.98;7.00;;;;;;;7.31;100.00;97182.06;4974914;28;20054;-60